sensor_id;sensor_type;location;lat;lon;timestamp;P1;durP1;ratioP1;P2;durP2;ratioP2
38853;SDS011;24606;51.992;4.198;2022-11-20T00:04:02;2.70;;;2.15;;
38853;SDS011;24606;51.992;4.198;2022-11-20T00:09:04;4.05;;;2.30;;
38853;SDS011;24606;51.992;4.198;2022-11-20T00:14:08;3.55;;;2.65;;
38853;SDS011;24606;51.992;4.198;2022-11-20T00:19:11;4.53;;;2.38;;
38853;SDS011;24606;51.992;4.198;2022-11-20T00:24:13;2.60;;;2.40;;
38853;SDS011;24606;51.992;4.198;2022-11-20T00:29:16;2.25;;;2.05;;
38853;SDS011;24606;51.992;4.198;2022-11-20T00:34:18;4.75;;;2.45;;
38853;SDS011;24606;51.992;4.198;2022-11-20T00:39:20;2.83;;;2.25;;
38853;SDS011;24606;51.992;4.198;2022-11-20T00:44:23;3.50;;;2.22;;
38853;SDS011;24606;51.992;4.198;2022-11-20T00:49:25;4.28;;;2.30;;
38853;SDS011;24606;51.992;4.198;2022-11-20T00:54:27;2.42;;;2.20;;
38853;SDS011;24606;51.992;4.198;2022-11-20T00:59:30;3.45;;;2.22;;
38853;SDS011;24606;51.992;4.198;2022-11-20T01:04:32;3.13;;;1.98;;
38853;SDS011;24606;51.992;4.198;2022-11-20T01:09:33;3.13;;;2.60;;
38853;SDS011;24606;51.992;4.198;2022-11-20T01:14:37;3.00;;;2.30;;
38853;SDS011;24606;51.992;4.198;2022-11-20T01:19:39;4.18;;;2.40;;
38853;SDS011;24606;51.992;4.198;2022-11-20T01:24:40;2.83;;;2.00;;
38853;SDS011;24606;51.992;4.198;2022-11-20T01:29:44;3.13;;;2.13;;
38853;SDS011;24606;51.992;4.198;2022-11-20T01:34:45;3.90;;;2.33;;
38853;SDS011;24606;51.992;4.198;2022-11-20T01:39:47;4.63;;;2.55;;
38853;SDS011;24606;51.992;4.198;2022-11-20T01:44:52;3.50;;;2.50;;
38853;SDS011;24606;51.992;4.198;2022-11-20T01:49:56;5.55;;;2.55;;
38853;SDS011;24606;51.992;4.198;2022-11-20T01:55:04;3.53;;;2.17;;
38853;SDS011;24606;51.992;4.198;2022-11-20T02:00:11;4.50;;;2.40;;
38853;SDS011;24606;51.992;4.198;2022-11-20T02:05:16;3.10;;;2.33;;
38853;SDS011;24606;51.992;4.198;2022-11-20T02:10:23;4.45;;;2.40;;
38853;SDS011;24606;51.992;4.198;2022-11-20T02:15:26;3.38;;;2.38;;
38853;SDS011;24606;51.992;4.198;2022-11-20T02:20:28;2.67;;;2.17;;
38853;SDS011;24606;51.992;4.198;2022-11-20T02:25:31;2.50;;;2.30;;
38853;SDS011;24606;51.992;4.198;2022-11-20T02:30:35;3.25;;;2.60;;
38853;SDS011;24606;51.992;4.198;2022-11-20T02:35:41;2.45;;;1.85;;
38853;SDS011;24606;51.992;4.198;2022-11-20T02:40:46;2.55;;;2.13;;
38853;SDS011;24606;51.992;4.198;2022-11-20T02:45:47;2.75;;;2.30;;
38853;SDS011;24606;51.992;4.198;2022-11-20T02:50:49;3.03;;;2.10;;
38853;SDS011;24606;51.992;4.198;2022-11-20T02:55:52;3.23;;;2.10;;
38853;SDS011;24606;51.992;4.198;2022-11-20T03:00:54;2.78;;;2.35;;
38853;SDS011;24606;51.992;4.198;2022-11-20T03:05:58;4.87;;;2.37;;
38853;SDS011;24606;51.992;4.198;2022-11-20T03:11:05;2.55;;;1.90;;
38853;SDS011;24606;51.992;4.198;2022-11-20T03:16:08;4.45;;;2.75;;
38853;SDS011;24606;51.992;4.198;2022-11-20T03:21:12;2.78;;;1.92;;
38853;SDS011;24606;51.992;4.198;2022-11-20T03:26:16;3.35;;;2.60;;
38853;SDS011;24606;51.992;4.198;2022-11-20T03:31:20;4.45;;;2.45;;
38853;SDS011;24606;51.992;4.198;2022-11-20T03:36:23;3.22;;;2.25;;
38853;SDS011;24606;51.992;4.198;2022-11-20T03:41:28;3.10;;;1.75;;
38853;SDS011;24606;51.992;4.198;2022-11-20T03:46:31;3.17;;;2.33;;
38853;SDS011;24606;51.992;4.198;2022-11-20T03:51:33;3.33;;;2.05;;
38853;SDS011;24606;51.992;4.198;2022-11-20T03:56:38;2.95;;;2.30;;
38853;SDS011;24606;51.992;4.198;2022-11-20T04:01:40;2.47;;;2.22;;
38853;SDS011;24606;51.992;4.198;2022-11-20T04:06:42;2.40;;;2.10;;
38853;SDS011;24606;51.992;4.198;2022-11-20T04:11:45;2.40;;;2.05;;
38853;SDS011;24606;51.992;4.198;2022-11-20T04:16:47;3.17;;;2.20;;
38853;SDS011;24606;51.992;4.198;2022-11-20T04:21:49;3.05;;;2.30;;
38853;SDS011;24606;51.992;4.198;2022-11-20T04:26:52;4.45;;;2.42;;
38853;SDS011;24606;51.992;4.198;2022-11-20T04:31:54;2.20;;;1.95;;
38853;SDS011;24606;51.992;4.198;2022-11-20T04:36:56;3.70;;;2.50;;
38853;SDS011;24606;51.992;4.198;2022-11-20T04:41:59;2.70;;;2.30;;
38853;SDS011;24606;51.992;4.198;2022-11-20T04:47:18;2.60;;;2.03;;
38853;SDS011;24606;51.992;4.198;2022-11-20T04:52:20;3.73;;;2.83;;
38853;SDS011;24606;51.992;4.198;2022-11-20T04:57:23;3.37;;;2.20;;
38853;SDS011;24606;51.992;4.198;2022-11-20T05:02:25;2.70;;;2.45;;
38853;SDS011;24606;51.992;4.198;2022-11-20T05:07:27;3.72;;;2.17;;
38853;SDS011;24606;51.992;4.198;2022-11-20T05:12:30;2.57;;;2.23;;
38853;SDS011;24606;51.992;4.198;2022-11-20T05:17:32;2.60;;;2.15;;
38853;SDS011;24606;51.992;4.198;2022-11-20T05:22:34;2.13;;;1.88;;
38853;SDS011;24606;51.992;4.198;2022-11-20T05:27:37;4.73;;;2.23;;
38853;SDS011;24606;51.992;4.198;2022-11-20T05:32:39;2.72;;;2.20;;
38853;SDS011;24606;51.992;4.198;2022-11-20T05:37:41;3.20;;;2.23;;
38853;SDS011;24606;51.992;4.198;2022-11-20T05:42:44;3.08;;;2.13;;
38853;SDS011;24606;51.992;4.198;2022-11-20T05:47:46;2.90;;;2.03;;
38853;SDS011;24606;51.992;4.198;2022-11-20T05:52:48;2.63;;;2.15;;
38853;SDS011;24606;51.992;4.198;2022-11-20T05:57:51;3.67;;;2.28;;
38853;SDS011;24606;51.992;4.198;2022-11-20T06:02:53;2.30;;;2.10;;
38853;SDS011;24606;51.992;4.198;2022-11-20T06:07:55;2.23;;;2.03;;
38853;SDS011;24606;51.992;4.198;2022-11-20T06:12:59;2.13;;;1.83;;
38853;SDS011;24606;51.992;4.198;2022-11-20T06:18:00;2.35;;;2.15;;
38853;SDS011;24606;51.992;4.198;2022-11-20T06:23:02;3.25;;;2.30;;
38853;SDS011;24606;51.992;4.198;2022-11-20T06:28:06;2.30;;;2.10;;
38853;SDS011;24606;51.992;4.198;2022-11-20T06:33:08;2.58;;;2.20;;
38853;SDS011;24606;51.992;4.198;2022-11-20T06:38:10;3.13;;;2.28;;
38853;SDS011;24606;51.992;4.198;2022-11-20T06:43:13;2.17;;;1.90;;
38853;SDS011;24606;51.992;4.198;2022-11-20T06:48:15;2.67;;;2.00;;
38853;SDS011;24606;51.992;4.198;2022-11-20T06:53:16;2.40;;;2.10;;
38853;SDS011;24606;51.992;4.198;2022-11-20T06:58:20;2.58;;;2.00;;
38853;SDS011;24606;51.992;4.198;2022-11-20T07:15:28;3.08;;;1.85;;
38853;SDS011;24606;51.992;4.198;2022-11-20T07:20:31;3.95;;;2.38;;
38853;SDS011;24606;51.992;4.198;2022-11-20T07:25:33;3.08;;;2.00;;
38853;SDS011;24606;51.992;4.198;2022-11-20T07:30:37;4.95;;;2.08;;
38853;SDS011;24606;51.992;4.198;2022-11-20T07:35:39;4.82;;;2.13;;
38853;SDS011;24606;51.992;4.198;2022-11-20T07:40:41;4.28;;;2.53;;
38853;SDS011;24606;51.992;4.198;2022-11-20T07:45:44;2.40;;;2.10;;
38853;SDS011;24606;51.992;4.198;2022-11-20T07:50:46;2.97;;;2.10;;
38853;SDS011;24606;51.992;4.198;2022-11-20T07:55:48;6.43;;;2.72;;
38853;SDS011;24606;51.992;4.198;2022-11-20T08:00:53;2.80;;;2.30;;
38853;SDS011;24606;51.992;4.198;2022-11-20T08:05:57;13.43;;;2.38;;
38853;SDS011;24606;51.992;4.198;2022-11-20T08:11:00;5.65;;;2.22;;
38853;SDS011;24606;51.992;4.198;2022-11-20T08:16:17;4.72;;;2.25;;
38853;SDS011;24606;51.992;4.198;2022-11-20T08:21:19;3.38;;;2.33;;
38853;SDS011;24606;51.992;4.198;2022-11-20T08:26:21;3.35;;;2.22;;
38853;SDS011;24606;51.992;4.198;2022-11-20T08:36:27;3.90;;;2.40;;
38853;SDS011;24606;51.992;4.198;2022-11-20T08:41:29;4.18;;;2.20;;
38853;SDS011;24606;51.992;4.198;2022-11-20T08:46:35;2.53;;;2.15;;
38853;SDS011;24606;51.992;4.198;2022-11-20T08:51:37;5.25;;;2.63;;
38853;SDS011;24606;51.992;4.198;2022-11-20T09:01:43;2.90;;;2.50;;
38853;SDS011;24606;51.992;4.198;2022-11-20T09:06:45;6.65;;;2.70;;
38853;SDS011;24606;51.992;4.198;2022-11-20T09:11:50;4.32;;;2.67;;
38853;SDS011;24606;51.992;4.198;2022-11-20T09:16:54;6.20;;;3.05;;
38853;SDS011;24606;51.992;4.198;2022-11-20T09:21:56;4.97;;;3.20;;
38853;SDS011;24606;51.992;4.198;2022-11-20T09:32:03;4.03;;;2.75;;
38853;SDS011;24606;51.992;4.198;2022-11-20T09:37:06;5.72;;;3.03;;
38853;SDS011;24606;51.992;4.198;2022-11-20T09:42:14;5.55;;;3.80;;
38853;SDS011;24606;51.992;4.198;2022-11-20T09:47:30;6.55;;;3.72;;
38853;SDS011;24606;51.992;4.198;2022-11-20T09:52:45;8.00;;;3.60;;
38853;SDS011;24606;51.992;4.198;2022-11-20T09:57:56;5.93;;;3.65;;
38853;SDS011;24606;51.992;4.198;2022-11-20T10:03:02;5.63;;;3.83;;
38853;SDS011;24606;51.992;4.198;2022-11-20T10:08:14;6.22;;;4.32;;
38853;SDS011;24606;51.992;4.198;2022-11-20T10:13:24;7.28;;;4.40;;
38853;SDS011;24606;51.992;4.198;2022-11-20T10:18:42;7.63;;;4.72;;
38853;SDS011;24606;51.992;4.198;2022-11-20T10:29:28;6.22;;;4.78;;
38853;SDS011;24606;51.992;4.198;2022-11-20T10:34:38;9.35;;;5.60;;
38853;SDS011;24606;51.992;4.198;2022-11-20T10:39:47;10.47;;;5.47;;
38853;SDS011;24606;51.992;4.198;2022-11-20T10:44:57;9.98;;;5.90;;
38853;SDS011;24606;51.992;4.198;2022-11-20T10:50:05;8.23;;;4.95;;
38853;SDS011;24606;51.992;4.198;2022-11-20T10:55:19;7.80;;;5.28;;
38853;SDS011;24606;51.992;4.198;2022-11-20T11:00:30;10.00;;;5.30;;
38853;SDS011;24606;51.992;4.198;2022-11-20T11:05:36;7.10;;;4.93;;
38853;SDS011;24606;51.992;4.198;2022-11-20T11:10:42;9.98;;;5.72;;
38853;SDS011;24606;51.992;4.198;2022-11-20T11:15:47;8.07;;;4.93;;
38853;SDS011;24606;51.992;4.198;2022-11-20T11:20:51;7.22;;;4.63;;
38853;SDS011;24606;51.992;4.198;2022-11-20T11:25:56;7.40;;;4.40;;
38853;SDS011;24606;51.992;4.198;2022-11-20T11:30:59;10.98;;;5.50;;
38853;SDS011;24606;51.992;4.198;2022-11-20T11:36:03;7.38;;;5.03;;
38853;SDS011;24606;51.992;4.198;2022-11-20T11:41:18;7.43;;;4.70;;
38853;SDS011;24606;51.992;4.198;2022-11-20T11:46:27;8.30;;;4.97;;
38853;SDS011;24606;51.992;4.198;2022-11-20T11:51:34;9.20;;;4.80;;
38853;SDS011;24606;51.992;4.198;2022-11-20T11:56:40;10.02;;;5.18;;
38853;SDS011;24606;51.992;4.198;2022-11-20T12:06:50;8.82;;;5.05;;
38853;SDS011;24606;51.992;4.198;2022-11-20T12:12:01;6.97;;;4.95;;
38853;SDS011;24606;51.992;4.198;2022-11-20T12:17:09;10.90;;;4.72;;
38853;SDS011;24606;51.992;4.198;2022-11-20T12:22:17;10.02;;;5.10;;
38853;SDS011;24606;51.992;4.198;2022-11-20T12:27:33;10.65;;;5.68;;
38853;SDS011;24606;51.992;4.198;2022-11-20T12:33:08;7.68;;;5.35;;
38853;SDS011;24606;51.992;4.198;2022-11-20T12:38:48;8.35;;;5.63;;
38853;SDS011;24606;51.992;4.198;2022-11-20T12:44:12;7.18;;;5.05;;
38853;SDS011;24606;51.992;4.198;2022-11-20T12:49:56;6.97;;;4.75;;
38853;SDS011;24606;51.992;4.198;2022-11-20T12:55:20;15.38;;;5.75;;
38853;SDS011;24606;51.992;4.198;2022-11-20T13:00:26;11.02;;;6.70;;
38853;SDS011;24606;51.992;4.198;2022-11-20T13:05:31;12.20;;;6.83;;
38853;SDS011;24606;51.992;4.198;2022-11-20T13:10:47;10.40;;;6.22;;
38853;SDS011;24606;51.992;4.198;2022-11-20T13:15:54;9.50;;;6.32;;
38853;SDS011;24606;51.992;4.198;2022-11-20T13:21:01;12.60;;;7.32;;
38853;SDS011;24606;51.992;4.198;2022-11-20T13:26:05;10.90;;;6.88;;
38853;SDS011;24606;51.992;4.198;2022-11-20T13:31:24;9.65;;;6.35;;
38853;SDS011;24606;51.992;4.198;2022-11-20T13:36:31;11.48;;;6.80;;
38853;SDS011;24606;51.992;4.198;2022-11-20T13:41:36;12.63;;;5.95;;
38853;SDS011;24606;51.992;4.198;2022-11-20T13:46:40;10.32;;;6.95;;
38853;SDS011;24606;51.992;4.198;2022-11-20T13:51:44;10.57;;;6.45;;
38853;SDS011;24606;51.992;4.198;2022-11-20T13:56:53;13.05;;;6.43;;
38853;SDS011;24606;51.992;4.198;2022-11-20T14:02:05;13.00;;;6.70;;
38853;SDS011;24606;51.992;4.198;2022-11-20T14:07:12;13.15;;;6.20;;
38853;SDS011;24606;51.992;4.198;2022-11-20T14:12:17;11.65;;;6.70;;
38853;SDS011;24606;51.992;4.198;2022-11-20T14:17:21;14.18;;;6.78;;
38853;SDS011;24606;51.992;4.198;2022-11-20T14:22:26;13.10;;;6.53;;
38853;SDS011;24606;51.992;4.198;2022-11-20T14:27:32;12.80;;;6.38;;
38853;SDS011;24606;51.992;4.198;2022-11-20T14:32:37;7.93;;;5.40;;
38853;SDS011;24606;51.992;4.198;2022-11-20T14:37:39;8.48;;;5.78;;
38853;SDS011;24606;51.992;4.198;2022-11-20T14:42:44;11.32;;;5.82;;
38853;SDS011;24606;51.992;4.198;2022-11-20T14:47:46;10.05;;;5.93;;
38853;SDS011;24606;51.992;4.198;2022-11-20T14:52:49;12.57;;;6.93;;
38853;SDS011;24606;51.992;4.198;2022-11-20T14:57:55;8.63;;;5.90;;
38853;SDS011;24606;51.992;4.198;2022-11-20T15:02:58;8.50;;;5.97;;
38853;SDS011;24606;51.992;4.198;2022-11-20T15:08:04;8.35;;;5.40;;
38853;SDS011;24606;51.992;4.198;2022-11-20T15:13:12;22.48;;;5.50;;
38853;SDS011;24606;51.992;4.198;2022-11-20T15:18:18;7.13;;;5.10;;
38853;SDS011;24606;51.992;4.198;2022-11-20T15:23:22;7.97;;;5.85;;
38853;SDS011;24606;51.992;4.198;2022-11-20T15:28:27;8.98;;;5.30;;
38853;SDS011;24606;51.992;4.198;2022-11-20T15:33:32;8.93;;;5.10;;
38853;SDS011;24606;51.992;4.198;2022-11-20T15:38:34;8.25;;;5.22;;
38853;SDS011;24606;51.992;4.198;2022-11-20T15:43:37;8.05;;;4.95;;
38853;SDS011;24606;51.992;4.198;2022-11-20T15:48:41;9.90;;;4.93;;
38853;SDS011;24606;51.992;4.198;2022-11-20T15:53:45;6.78;;;4.53;;
38853;SDS011;24606;51.992;4.198;2022-11-20T16:03:50;8.75;;;5.20;;
38853;SDS011;24606;51.992;4.198;2022-11-20T16:08:52;8.30;;;5.35;;
38853;SDS011;24606;51.992;4.198;2022-11-20T16:13:55;7.22;;;4.85;;
38853;SDS011;24606;51.992;4.198;2022-11-20T16:19:15;8.10;;;4.60;;
38853;SDS011;24606;51.992;4.198;2022-11-20T16:24:18;7.03;;;4.43;;
38853;SDS011;24606;51.992;4.198;2022-11-20T16:29:21;5.35;;;3.97;;
38853;SDS011;24606;51.992;4.198;2022-11-20T16:34:23;5.65;;;4.07;;
38853;SDS011;24606;51.992;4.198;2022-11-20T16:39:25;10.00;;;4.25;;
38853;SDS011;24606;51.992;4.198;2022-11-20T16:44:28;5.68;;;4.28;;
38853;SDS011;24606;51.992;4.198;2022-11-20T16:49:30;6.28;;;3.90;;
38853;SDS011;24606;51.992;4.198;2022-11-20T16:54:32;11.43;;;3.90;;
38853;SDS011;24606;51.992;4.198;2022-11-20T16:59:35;7.88;;;3.90;;
38853;SDS011;24606;51.992;4.198;2022-11-20T17:04:37;6.18;;;3.58;;
38853;SDS011;24606;51.992;4.198;2022-11-20T17:09:39;6.43;;;4.28;;
38853;SDS011;24606;51.992;4.198;2022-11-20T17:14:42;6.68;;;4.30;;
38853;SDS011;24606;51.992;4.198;2022-11-20T17:19:44;8.25;;;3.75;;
38853;SDS011;24606;51.992;4.198;2022-11-20T17:24:46;7.88;;;5.05;;
38853;SDS011;24606;51.992;4.198;2022-11-20T17:29:49;15.55;;;6.80;;
38853;SDS011;24606;51.992;4.198;2022-11-20T17:34:51;16.45;;;8.65;;
38853;SDS011;24606;51.992;4.198;2022-11-20T17:39:53;21.08;;;9.05;;
38853;SDS011;24606;51.992;4.198;2022-11-20T17:44:56;22.83;;;8.90;;
38853;SDS011;24606;51.992;4.198;2022-11-20T17:49:58;24.42;;;9.60;;
38853;SDS011;24606;51.992;4.198;2022-11-20T17:55:00;19.08;;;9.73;;
38853;SDS011;24606;51.992;4.198;2022-11-20T18:00:04;24.60;;;10.15;;
38853;SDS011;24606;51.992;4.198;2022-11-20T18:05:07;21.00;;;8.70;;
38853;SDS011;24606;51.992;4.198;2022-11-20T18:15:12;18.67;;;7.63;;
38853;SDS011;24606;51.992;4.198;2022-11-20T18:20:14;42.10;;;23.65;;
38853;SDS011;24606;51.992;4.198;2022-11-20T18:25:17;28.38;;;13.00;;
38853;SDS011;24606;51.992;4.198;2022-11-20T18:30:21;76.93;;;43.00;;
38853;SDS011;24606;51.992;4.198;2022-11-20T18:35:23;96.95;;;57.42;;
38853;SDS011;24606;51.992;4.198;2022-11-20T18:40:27;95.22;;;59.90;;
38853;SDS011;24606;51.992;4.198;2022-11-20T18:45:31;102.97;;;65.45;;
38853;SDS011;24606;51.992;4.198;2022-11-20T18:50:33;125.00;;;79.75;;
38853;SDS011;24606;51.992;4.198;2022-11-20T18:55:35;108.97;;;72.20;;
38853;SDS011;24606;51.992;4.198;2022-11-20T19:00:38;40.40;;;25.70;;
38853;SDS011;24606;51.992;4.198;2022-11-20T19:05:40;16.27;;;8.88;;
38853;SDS011;24606;51.992;4.198;2022-11-20T19:10:42;19.13;;;7.07;;
38853;SDS011;24606;51.992;4.198;2022-11-20T19:15:45;15.68;;;7.18;;
38853;SDS011;24606;51.992;4.198;2022-11-20T19:20:47;19.77;;;3.05;;
38853;SDS011;24606;51.992;4.198;2022-11-20T19:25:49;18.90;;;9.25;;
38853;SDS011;24606;51.992;4.198;2022-11-20T19:30:52;14.57;;;4.97;;
38853;SDS011;24606;51.992;4.198;2022-11-20T19:35:54;16.00;;;3.55;;
38853;SDS011;24606;51.992;4.198;2022-11-20T19:40:57;20.02;;;4.53;;
38853;SDS011;24606;51.992;4.198;2022-11-20T19:46:01;14.83;;;4.33;;
38853;SDS011;24606;51.992;4.198;2022-11-20T19:51:07;16.67;;;4.03;;
38853;SDS011;24606;51.992;4.198;2022-11-20T19:56:09;16.67;;;2.78;;
38853;SDS011;24606;51.992;4.198;2022-11-20T20:01:13;17.60;;;3.28;;
38853;SDS011;24606;51.992;4.198;2022-11-20T20:06:17;17.25;;;3.72;;
38853;SDS011;24606;51.992;4.198;2022-11-20T20:11:21;17.45;;;2.97;;
38853;SDS011;24606;51.992;4.198;2022-11-20T20:16:27;12.45;;;3.47;;
38853;SDS011;24606;51.992;4.198;2022-11-20T20:21:29;16.70;;;3.83;;
38853;SDS011;24606;51.992;4.198;2022-11-20T20:26:32;20.17;;;2.85;;
38853;SDS011;24606;51.992;4.198;2022-11-20T20:31:35;27.17;;;4.37;;
38853;SDS011;24606;51.992;4.198;2022-11-20T20:36:37;14.55;;;2.45;;
38853;SDS011;24606;51.992;4.198;2022-11-20T20:41:40;11.30;;;2.35;;
38853;SDS011;24606;51.992;4.198;2022-11-20T20:46:43;13.43;;;2.53;;
38853;SDS011;24606;51.992;4.198;2022-11-20T20:51:45;14.63;;;2.47;;
38853;SDS011;24606;51.992;4.198;2022-11-20T20:56:47;23.58;;;3.05;;
38853;SDS011;24606;51.992;4.198;2022-11-20T21:01:52;9.63;;;2.42;;
38853;SDS011;24606;51.992;4.198;2022-11-20T21:06:54;16.58;;;2.83;;
38853;SDS011;24606;51.992;4.198;2022-11-20T21:11:56;21.48;;;3.80;;
38853;SDS011;24606;51.992;4.198;2022-11-20T21:16:59;17.87;;;2.67;;
38853;SDS011;24606;51.992;4.198;2022-11-20T21:22:02;11.90;;;2.25;;
38853;SDS011;24606;51.992;4.198;2022-11-20T21:27:04;24.00;;;3.27;;
38853;SDS011;24606;51.992;4.198;2022-11-20T21:32:07;14.23;;;2.25;;
38853;SDS011;24606;51.992;4.198;2022-11-20T21:37:09;11.98;;;3.40;;
38853;SDS011;24606;51.992;4.198;2022-11-20T21:42:12;13.00;;;2.10;;
38853;SDS011;24606;51.992;4.198;2022-11-20T21:47:15;6.10;;;2.30;;
38853;SDS011;24606;51.992;4.198;2022-11-20T21:52:17;15.93;;;3.05;;
38853;SDS011;24606;51.992;4.198;2022-11-20T21:57:20;11.70;;;1.93;;
38853;SDS011;24606;51.992;4.198;2022-11-20T22:02:23;29.98;;;2.58;;
38853;SDS011;24606;51.992;4.198;2022-11-20T22:07:25;20.58;;;3.20;;
38853;SDS011;24606;51.992;4.198;2022-11-20T22:12:27;6.23;;;1.97;;
38853;SDS011;24606;51.992;4.198;2022-11-20T22:17:31;11.47;;;2.37;;
38853;SDS011;24606;51.992;4.198;2022-11-20T22:22:50;8.88;;;1.38;;
38853;SDS011;24606;51.992;4.198;2022-11-20T22:27:52;8.40;;;1.63;;
38853;SDS011;24606;51.992;4.198;2022-11-20T22:32:56;10.93;;;2.07;;
38853;SDS011;24606;51.992;4.198;2022-11-20T22:37:58;9.38;;;1.63;;
38853;SDS011;24606;51.992;4.198;2022-11-20T22:43:00;13.55;;;2.45;;
38853;SDS011;24606;51.992;4.198;2022-11-20T22:48:03;9.13;;;1.85;;
38853;SDS011;24606;51.992;4.198;2022-11-20T22:53:06;6.82;;;1.52;;
38853;SDS011;24606;51.992;4.198;2022-11-20T22:58:08;4.95;;;1.50;;
38853;SDS011;24606;51.992;4.198;2022-11-20T23:03:11;7.70;;;2.40;;
38853;SDS011;24606;51.992;4.198;2022-11-20T23:08:13;8.48;;;2.33;;
38853;SDS011;24606;51.992;4.198;2022-11-20T23:13:15;12.30;;;1.63;;
38853;SDS011;24606;51.992;4.198;2022-11-20T23:18:18;11.93;;;1.57;;
38853;SDS011;24606;51.992;4.198;2022-11-20T23:23:20;17.20;;;3.88;;
38853;SDS011;24606;51.992;4.198;2022-11-20T23:28:22;9.97;;;1.30;;
38853;SDS011;24606;51.992;4.198;2022-11-20T23:33:25;4.47;;;1.40;;
38853;SDS011;24606;51.992;4.198;2022-11-20T23:38:27;3.30;;;1.58;;
38853;SDS011;24606;51.992;4.198;2022-11-20T23:43:29;4.47;;;2.57;;
38853;SDS011;24606;51.992;4.198;2022-11-20T23:48:34;4.72;;;1.10;;
38853;SDS011;24606;51.992;4.198;2022-11-20T23:53:37;4.20;;;1.30;;
38853;SDS011;24606;51.992;4.198;2022-11-20T23:58:39;4.30;;;1.08;;
